createdAt,value
2018-07-16T00:01:11.279Z,98680.02
2018-07-16T00:03:43.491Z,98673.53
2018-07-16T00:06:14.065Z,98676.68
2018-07-16T00:08:44.544Z,98682.38
2018-07-16T00:11:15.084Z,98683.92
2018-07-16T00:13:45.699Z,98684.91
2018-07-16T00:16:16.219Z,98685.35
2018-07-16T00:18:46.697Z,98686.00
2018-07-16T00:21:17.669Z,98682.70
2018-07-16T00:23:49.093Z,98678.06
2018-07-16T00:26:19.631Z,98671.42
2018-07-16T00:28:50.295Z,98672.80
2018-07-16T00:31:20.758Z,98658.38
2018-07-16T00:33:51.406Z,98650.88
2018-07-16T00:36:21.947Z,98665.66
2018-07-16T00:38:52.586Z,98664.94
2018-07-16T00:41:24.608Z,98654.34
2018-07-16T00:43:55.925Z,98657.69
2018-07-16T00:46:26.496Z,98659.05
2018-07-16T00:48:56.883Z,98658.09
2018-07-16T00:51:27.426Z,98659.13
2018-07-16T00:53:57.810Z,98665.77
2018-07-16T00:56:28.638Z,98664.80
2018-07-16T00:58:59.553Z,98653.39
2018-07-16T01:01:30.822Z,98651.06
2018-07-16T01:04:01.322Z,98644.61
2018-07-16T01:06:32.000Z,98650.25
2018-07-16T01:09:02.776Z,98653.39
2018-07-16T01:11:33.322Z,98639.45
2018-07-16T01:14:03.863Z,98631.84
2018-07-16T01:16:34.332Z,98631.98
2018-07-16T01:19:05.421Z,98635.67
2018-07-16T01:21:36.738Z,98645.27
2018-07-16T01:24:07.280Z,98638.95
2018-07-16T01:26:37.717Z,98643.14
2018-07-16T01:29:08.224Z,98642.65
2018-07-16T01:31:38.764Z,98635.72
2018-07-16T01:34:09.610Z,98638.68
2018-07-16T01:36:40.077Z,98637.70
2018-07-16T01:39:12.012Z,98633.38
2018-07-16T01:41:42.937Z,98626.44
2018-07-16T01:44:12.935Z,98630.72
2018-07-16T01:46:43.545Z,98623.78
2018-07-16T01:49:13.997Z,98616.14
2018-07-16T01:51:44.588Z,98614.83
2018-07-16T01:54:15.010Z,98612.86
2018-07-16T01:56:45.581Z,98622.13
2018-07-16T01:59:17.682Z,98616.17
2018-07-16T02:01:48.462Z,98614.84
2018-07-16T02:04:19.437Z,98623.80
2018-07-16T02:06:50.017Z,98626.09
2018-07-16T02:09:21.517Z,98624.28
2018-07-16T02:11:52.019Z,98623.14
2018-07-16T02:14:22.662Z,98625.78
2018-07-16T02:16:53.595Z,98628.59
2018-07-16T02:19:24.860Z,98625.44
2018-07-16T02:21:55.313Z,98629.89
2018-07-16T02:24:25.932Z,98632.06
2018-07-16T02:26:56.819Z,98629.73
2018-07-16T02:29:27.513Z,98626.42
2018-07-16T02:31:58.186Z,98629.41
2018-07-16T02:34:28.718Z,98627.05
2018-07-16T02:36:59.759Z,98618.75
2018-07-16T02:39:30.733Z,98622.75
2018-07-16T02:42:01.447Z,98627.04
2018-07-16T02:44:32.058Z,98626.68
2018-07-16T02:47:02.637Z,98635.93
2018-07-16T02:49:33.130Z,98636.91
2018-07-16T02:52:03.710Z,98644.14
2018-07-16T02:54:34.514Z,98640.02
2018-07-16T02:57:05.750Z,98634.75
2018-07-16T02:59:35.716Z,98634.93
2018-07-16T03:02:06.497Z,98635.27
2018-07-16T03:04:37.000Z,98647.05
2018-07-16T03:07:08.078Z,98654.47
2018-07-16T03:09:38.589Z,98645.37
2018-07-16T03:12:09.309Z,98652.84
2018-07-16T03:14:40.113Z,98659.28
2018-07-16T03:17:12.064Z,98664.08
2018-07-16T03:19:42.727Z,98664.06
2018-07-16T03:22:13.265Z,98663.02
2018-07-16T03:24:44.174Z,98659.20
2018-07-16T03:27:14.731Z,98664.14
2018-07-16T03:29:45.982Z,98661.49
2018-07-16T03:32:16.611Z,98657.52
2018-07-16T03:34:48.005Z,98657.03
2018-07-16T03:37:18.904Z,98654.05
2018-07-16T03:39:49.626Z,98659.03
2018-07-16T03:42:20.127Z,98656.20
2018-07-16T03:44:50.796Z,98659.00
2018-07-16T03:47:20.886Z,98662.94
2018-07-16T03:49:51.469Z,98661.91
2018-07-16T03:52:21.494Z,98666.99
2018-07-16T03:54:52.768Z,98662.04
2018-07-16T03:57:23.939Z,98667.13
2018-07-16T03:59:55.298Z,98670.25
2018-07-16T04:02:25.991Z,98672.24
2018-07-16T04:04:56.834Z,98671.11
2018-07-16T04:07:27.403Z,98677.39
2018-07-16T04:09:58.106Z,98676.60
2018-07-16T04:12:29.480Z,98678.07
2018-07-16T04:15:00.655Z,98684.73
2018-07-16T04:17:30.737Z,98684.56
2018-07-16T04:20:01.389Z,98681.79
2018-07-16T04:22:31.869Z,98686.45
2018-07-16T04:25:02.457Z,98677.57
2018-07-16T04:27:32.907Z,98680.59
2018-07-16T04:30:04.111Z,98680.25
2018-07-16T04:32:35.589Z,98684.19
2018-07-16T04:35:06.120Z,98678.88
2018-07-16T04:37:36.772Z,98677.92
2018-07-16T04:40:07.294Z,98677.59
2018-07-16T04:42:37.921Z,98667.36
2018-07-16T04:45:08.008Z,98672.30
2018-07-16T04:47:38.505Z,98674.11
2018-07-16T04:50:09.346Z,98683.59
2018-07-16T04:52:40.599Z,98678.23
2018-07-16T04:55:11.311Z,98673.12
2018-07-16T04:57:41.665Z,98685.06
2018-07-16T05:00:12.298Z,98685.69
2018-07-16T05:02:42.763Z,98680.06
2018-07-16T05:05:13.390Z,98674.86
2018-07-16T05:07:43.798Z,98668.36
2018-07-16T05:10:15.017Z,98665.16
2018-07-16T05:12:46.656Z,98668.63
2018-07-16T05:15:17.335Z,98670.73
2018-07-16T05:17:47.841Z,98661.34
2018-07-16T05:20:18.549Z,98664.97
2018-07-16T05:22:48.970Z,98667.28
2018-07-16T05:25:19.612Z,98674.94
2018-07-16T05:27:49.806Z,98683.20
2018-07-16T05:30:21.263Z,98684.09
2018-07-16T05:32:51.798Z,98695.33
2018-07-16T05:35:22.725Z,98692.59
2018-07-16T05:37:53.335Z,98695.20
2018-07-16T05:40:24.972Z,98694.73
2018-07-16T05:42:56.223Z,98701.21
2018-07-16T05:45:26.387Z,98703.38
2018-07-16T05:47:57.140Z,98700.95
2018-07-16T05:50:27.869Z,98696.45
2018-07-16T05:52:58.561Z,98690.94
2018-07-16T05:55:29.186Z,98683.98
2018-07-16T05:58:00.342Z,98691.11
2018-07-16T06:00:31.931Z,98696.30
2018-07-16T06:03:02.826Z,98700.66
2018-07-16T06:05:38.007Z,98710.80
2018-07-16T06:08:08.975Z,98713.84
2018-07-16T06:10:39.363Z,98711.59
2018-07-16T06:13:09.851Z,98707.91
2018-07-16T06:15:40.531Z,98704.61
2018-07-16T06:18:13.717Z,98695.75
2018-07-16T06:20:45.181Z,98694.47
2018-07-16T06:23:15.636Z,98705.65
2018-07-16T06:25:45.707Z,98712.01
2018-07-16T06:28:16.777Z,98723.10
2018-07-16T06:30:47.427Z,98718.74
2018-07-16T06:33:18.080Z,98716.24
2018-07-16T06:35:48.626Z,98717.91
2018-07-16T06:38:20.576Z,98715.45
2018-07-16T06:40:51.765Z,98712.93
2018-07-16T06:43:22.178Z,98716.20
2018-07-16T06:45:52.681Z,98711.17
2018-07-16T06:48:23.129Z,98715.22
2018-07-16T06:50:53.974Z,98718.95
2018-07-16T06:53:24.673Z,98721.83
2018-07-16T06:55:55.677Z,98723.64
2018-07-16T06:58:27.500Z,98725.51
2018-07-16T07:00:58.064Z,98729.16
2018-07-16T07:03:28.245Z,98730.94
2018-07-16T07:05:59.108Z,98729.84
2018-07-16T07:08:29.730Z,98719.05
2018-07-16T07:11:00.373Z,98713.66
2018-07-16T07:13:31.042Z,98702.25
2018-07-16T07:16:02.767Z,98699.52
2018-07-16T07:18:34.046Z,98692.19
2018-07-16T07:21:04.790Z,98692.08
2018-07-16T07:23:35.457Z,98683.31
2018-07-16T07:26:06.786Z,98686.27
2018-07-16T07:28:37.474Z,98672.56
2018-07-16T07:31:08.882Z,98677.77
2018-07-16T07:33:39.417Z,98675.23
2018-07-16T07:36:11.111Z,98669.23
2018-07-16T07:38:41.967Z,98676.16
2018-07-16T07:41:12.753Z,98673.14
2018-07-16T07:43:43.522Z,98667.67
2018-07-16T07:46:14.441Z,98665.33
2018-07-16T07:48:52.167Z,98656.03
2018-07-16T07:51:24.062Z,98637.53
2018-07-16T07:53:55.673Z,98647.66
2018-07-16T07:56:27.448Z,98640.72
2018-07-16T07:58:58.617Z,98644.63
2018-07-16T08:01:29.496Z,98647.10
2018-07-16T08:04:00.149Z,98646.03
2018-07-16T08:06:30.852Z,98653.09
2018-07-16T08:09:02.839Z,98653.87
2018-07-16T08:11:34.304Z,98644.85
2018-07-16T08:14:05.063Z,98636.40
2018-07-16T08:16:35.867Z,98629.63
2018-07-16T08:19:06.776Z,98630.56
2018-07-16T08:21:37.705Z,98640.28
2018-07-16T08:24:08.965Z,98633.50
2018-07-16T08:26:40.323Z,98634.79
2018-07-16T08:29:12.150Z,98642.52
2018-07-16T08:31:42.878Z,98638.27
2018-07-16T08:34:13.789Z,98635.25
2018-07-16T08:36:44.752Z,98639.70
2018-07-16T08:39:16.049Z,98632.80
2018-07-16T08:41:46.814Z,98638.19
2018-07-16T08:44:18.367Z,98636.33
2018-07-16T08:46:49.772Z,98642.38
2018-07-16T08:49:21.234Z,98632.78
2018-07-16T08:51:52.231Z,98631.13
2018-07-16T08:54:23.555Z,98628.40
2018-07-16T08:56:54.606Z,98634.27
2018-07-16T08:59:26.146Z,98632.27
2018-07-16T09:01:58.303Z,98646.15
2018-07-16T09:04:29.458Z,98654.27
2018-07-16T09:07:00.480Z,98662.95
2018-07-16T09:09:31.495Z,98653.80
2018-07-16T09:12:02.103Z,98661.33
2018-07-16T09:14:32.897Z,98658.11
2018-07-16T09:17:05.053Z,98653.23
2018-07-16T09:19:36.356Z,98658.05
2018-07-16T09:22:07.146Z,98661.89
2018-07-16T09:24:37.721Z,98656.29
2018-07-16T09:27:08.233Z,98665.47
2018-07-16T09:29:39.064Z,98667.22
2018-07-16T09:32:10.801Z,98672.27
2018-07-16T09:34:41.290Z,98670.81
2018-07-16T09:37:13.449Z,98667.03
2018-07-16T09:39:45.351Z,98670.88
2018-07-16T09:42:16.022Z,98654.71
2018-07-16T09:44:47.179Z,98651.95
2018-07-16T09:47:18.056Z,98663.80
2018-07-16T09:49:49.372Z,98664.35
2018-07-16T09:52:20.026Z,98661.25
2018-07-16T09:55:03.942Z,98635.84
2018-07-16T09:57:36.154Z,98632.33
2018-07-16T10:00:07.867Z,98635.61
2018-07-16T10:02:39.176Z,98629.52
2018-07-16T10:05:12.613Z,98635.09
2018-07-16T10:07:43.645Z,98644.38
2018-07-16T10:10:15.045Z,98633.39
2018-07-16T10:12:46.101Z,98634.42
2018-07-16T10:15:16.869Z,98632.91
2018-07-16T10:17:47.577Z,98639.48
2018-07-16T10:20:18.910Z,98647.96
2018-07-16T10:23:13.537Z,98662.36
2018-07-16T10:25:44.718Z,98661.73
2018-07-16T10:28:15.996Z,98661.61
2018-07-16T10:30:49.441Z,98666.02
2018-07-16T10:33:35.047Z,98644.63
2018-07-16T10:36:05.816Z,98652.29
2018-07-16T10:38:40.299Z,98670.09
2018-07-16T10:41:10.981Z,98664.70
2018-07-16T10:43:44.103Z,98653.23
2018-07-16T10:46:15.891Z,98674.49
2018-07-16T10:48:46.882Z,98649.38
2018-07-16T10:51:18.048Z,98634.59
2018-07-16T10:53:49.553Z,98636.60
2018-07-16T10:56:20.624Z,98615.69
2018-07-16T10:58:51.909Z,98623.46
2018-07-16T11:01:23.010Z,98642.34
2018-07-16T11:03:54.577Z,98636.89
2018-07-16T11:06:26.212Z,98650.06
2018-07-16T11:08:57.619Z,98645.32
2018-07-16T11:11:28.413Z,98635.77
2018-07-16T11:13:59.099Z,98629.81
2018-07-16T11:16:29.236Z,98616.30
2018-07-16T11:18:59.798Z,98618.52
2018-07-16T11:21:31.491Z,98648.11
2018-07-16T11:24:03.958Z,98653.23
2018-07-16T11:26:34.842Z,98657.30
2018-07-16T11:29:06.003Z,98655.38
2018-07-16T11:31:36.481Z,98630.80
2018-07-16T11:34:07.261Z,98642.63
2018-07-16T11:36:37.259Z,98647.88
2018-07-16T11:39:09.572Z,98648.94
2018-07-16T11:41:40.489Z,98632.81
2018-07-16T11:44:12.315Z,98634.47
2018-07-16T11:46:43.045Z,98640.47
2018-07-16T11:49:14.013Z,98636.70
2018-07-16T11:51:44.897Z,98632.66
2018-07-16T11:54:17.108Z,98629.14
2018-07-16T11:56:48.486Z,98633.38
2018-07-16T11:59:19.162Z,98619.33
2018-07-16T12:01:51.101Z,98612.30
2018-07-16T12:04:22.080Z,98593.48
2018-07-16T12:06:53.508Z,98597.25
2018-07-16T12:09:24.207Z,98574.92
2018-07-16T12:11:56.175Z,98571.06
2018-07-16T12:14:26.906Z,98589.17
2018-07-16T12:17:01.796Z,98582.36
2018-07-16T12:19:36.345Z,98573.67
2018-07-16T12:22:09.116Z,98574.41
2018-07-16T12:24:41.606Z,98557.86
2018-07-16T12:27:13.799Z,98564.64
2018-07-16T12:29:44.940Z,98546.05
2018-07-16T12:32:17.859Z,98556.32
2018-07-16T12:34:51.138Z,98552.44
2018-07-16T12:37:24.937Z,98535.80
2018-07-16T12:39:57.332Z,98535.52
2018-07-16T12:42:30.566Z,98547.73
2018-07-16T12:45:03.648Z,98539.63
2018-07-16T12:47:36.498Z,98564.19
2018-07-16T12:50:09.565Z,98541.18
2018-07-16T12:55:15.900Z,98518.27
2018-07-16T12:57:47.730Z,98532.81
2018-07-16T13:00:18.832Z,98507.83
2018-07-16T13:02:50.642Z,98518.36
2018-07-16T13:05:21.735Z,98511.78
2018-07-16T13:07:53.610Z,98505.73
2018-07-16T13:10:24.273Z,98497.77
2018-07-16T13:12:55.971Z,98492.91
2018-07-16T13:15:30.118Z,98471.55
2018-07-16T13:18:01.645Z,98443.47
2018-07-16T13:20:33.692Z,98441.60
2018-07-16T13:23:04.328Z,98429.66
2018-07-16T13:25:36.400Z,98425.86
2018-07-16T13:28:07.332Z,98428.36
2018-07-16T13:30:38.194Z,98428.24
2018-07-16T13:33:08.495Z,98443.59
2018-07-16T13:35:39.527Z,98455.06
2018-07-16T13:38:11.402Z,98454.95
2018-07-16T13:40:42.415Z,98458.53
2018-07-16T13:43:13.951Z,98456.55
2018-07-16T13:45:45.002Z,98449.70
2018-07-16T13:48:15.795Z,98426.41
2018-07-16T13:50:47.633Z,98398.13
2018-07-16T13:53:18.666Z,98362.00
2018-07-16T13:55:50.584Z,98377.70
2018-07-16T13:58:21.766Z,98431.95
2018-07-16T14:00:53.249Z,98407.30
2018-07-16T14:03:24.441Z,98384.83
2018-07-16T14:05:55.723Z,98385.81
2018-07-16T14:08:26.861Z,98421.02
2018-07-16T14:10:57.639Z,98434.36
2018-07-16T14:13:29.218Z,98416.63
2018-07-16T14:16:00.779Z,98404.15
2018-07-16T14:18:31.951Z,98355.64
2018-07-16T14:21:05.067Z,98330.96
2018-07-16T14:23:36.157Z,98349.55
2018-07-16T14:26:07.956Z,98383.28
2018-07-16T14:28:39.016Z,98411.84
2018-07-16T14:31:11.099Z,98393.87
2018-07-16T14:33:44.041Z,98395.67
2018-07-16T14:36:15.128Z,98419.65
2018-07-16T14:38:46.159Z,98415.63
2018-07-16T14:41:17.493Z,98408.78
2018-07-16T14:43:49.796Z,98422.45
2018-07-16T14:46:20.699Z,98409.98
2018-07-16T14:48:53.405Z,98396.47
2018-07-16T14:51:24.389Z,98382.36
2018-07-16T14:53:55.044Z,98370.21
2018-07-16T14:56:26.949Z,98356.16
2018-07-16T14:58:58.927Z,98364.14
2018-07-16T15:01:29.919Z,98357.67
2018-07-16T15:04:01.507Z,98351.76
2018-07-16T15:06:33.840Z,98357.38
2018-07-16T15:09:09.363Z,98333.15
2018-07-16T15:11:40.511Z,98324.34
2018-07-16T15:14:11.941Z,98329.92
2018-07-16T15:16:43.628Z,98329.17
2018-07-16T15:19:15.634Z,98318.16
2018-07-16T15:21:50.958Z,98312.98
2018-07-16T15:24:22.402Z,98317.41
2018-07-16T15:26:53.210Z,98308.42
2018-07-16T15:29:24.159Z,98296.23
2018-07-16T15:31:54.879Z,98294.95
2018-07-16T15:34:25.834Z,98299.09
2018-07-16T15:36:58.474Z,98279.93
2018-07-16T15:39:30.211Z,98296.12
2018-07-16T15:42:01.571Z,98279.23
2018-07-16T15:44:46.923Z,98276.30
2018-07-16T15:47:23.660Z,98273.28
2018-07-16T15:49:55.354Z,98265.27
2018-07-16T15:52:42.257Z,98269.58
2018-07-16T15:55:18.527Z,98269.90
2018-07-16T15:57:54.937Z,98280.28
2018-07-16T16:00:26.936Z,98289.42
2018-07-16T16:02:58.309Z,98295.35
2018-07-16T16:05:32.591Z,98295.78
2018-07-16T16:08:04.604Z,98288.80
2018-07-16T16:10:37.819Z,98295.23
2018-07-16T16:13:08.913Z,98301.92
2018-07-16T16:15:41.709Z,98316.55
2018-07-16T16:18:12.947Z,98314.58
2018-07-16T16:20:44.729Z,98319.97
2018-07-16T16:23:16.102Z,98332.78
2018-07-16T16:25:47.337Z,98346.62
2018-07-16T16:28:20.899Z,98353.20
2018-07-16T16:30:52.294Z,98347.89
2018-07-16T16:33:23.169Z,98331.80
2018-07-16T16:35:55.602Z,98333.86
2018-07-16T16:38:27.279Z,98331.34
2018-07-16T16:40:58.878Z,98318.39
2018-07-16T16:43:30.915Z,98314.74
2018-07-16T16:46:02.800Z,98310.76
2018-07-16T16:48:33.729Z,98306.22
2018-07-16T16:51:05.659Z,98315.52
2018-07-16T16:53:36.728Z,98301.11
2018-07-16T16:56:09.157Z,98307.84
2018-07-16T16:58:45.543Z,98303.85
2018-07-16T17:01:18.282Z,98306.55
2018-07-16T17:03:51.601Z,98303.98
2018-07-16T17:06:22.948Z,98297.77
2018-07-16T17:08:53.403Z,98301.98
2018-07-16T17:11:25.242Z,98321.58
2018-07-16T17:13:58.174Z,98314.43
2018-07-16T17:16:30.504Z,98311.10
2018-07-16T17:19:05.462Z,98316.54
2018-07-16T17:21:38.691Z,98317.80
2018-07-16T17:24:11.862Z,98309.73
2018-07-16T17:26:48.188Z,98310.39
2018-07-16T17:29:21.713Z,98309.08
2018-07-16T17:31:53.989Z,98307.27
2018-07-16T17:34:26.458Z,98319.27
2018-07-16T17:36:58.685Z,98308.91
2018-07-16T17:39:31.701Z,98300.33
2018-07-16T17:42:03.819Z,98321.97
2018-07-16T17:44:36.618Z,98312.77
2018-07-16T17:47:09.856Z,98319.45
2018-07-16T17:49:41.122Z,98313.19
2018-07-16T17:52:11.978Z,98305.44
2018-07-16T17:54:51.279Z,98306.77
2018-07-16T17:57:22.089Z,98301.70
2018-07-16T18:00:00.031Z,98288.68
2018-07-16T18:02:36.539Z,98293.55
2018-07-16T18:05:10.491Z,98281.34
2018-07-16T18:07:42.924Z,98276.61
2018-07-16T18:10:17.585Z,98272.75
2018-07-16T18:12:49.091Z,98272.41
2018-07-16T18:15:19.984Z,98273.17
2018-07-16T18:17:51.396Z,98272.42
2018-07-16T18:20:23.141Z,98274.59
2018-07-16T18:22:53.994Z,98259.48
2018-07-16T18:25:25.213Z,98252.84
2018-07-16T18:27:57.126Z,98239.36
2018-07-16T18:30:28.349Z,98237.58
2018-07-16T18:32:59.883Z,98229.41
2018-07-16T18:35:32.212Z,98240.63
2018-07-16T18:38:04.560Z,98229.27
2018-07-16T18:40:35.845Z,98212.03
2018-07-16T18:43:09.317Z,98203.82
2018-07-16T18:45:40.857Z,98201.52
2018-07-16T18:48:13.074Z,98212.52
2018-07-16T18:50:46.085Z,98217.06
2018-07-16T18:53:19.599Z,98236.10
2018-07-16T18:55:51.297Z,98249.23
2018-07-16T18:58:23.315Z,98237.27
2018-07-16T19:00:55.640Z,98242.95
2018-07-16T19:03:27.944Z,98238.85
2018-07-16T19:06:01.708Z,98225.87
2018-07-16T19:08:34.687Z,98202.05
2018-07-16T19:11:08.544Z,98174.85
2018-07-16T19:13:41.846Z,98180.52
2018-07-16T19:16:14.052Z,98223.28
2018-07-16T19:18:46.575Z,98262.02
2018-07-16T19:21:19.345Z,98306.73
2018-07-16T19:23:51.214Z,98350.23
2018-07-16T19:26:23.430Z,98367.38
2018-07-16T19:28:55.199Z,98433.03
2018-07-16T19:31:27.752Z,98516.56
2018-07-16T19:34:01.084Z,98452.77
2018-07-16T19:36:34.472Z,98296.77
2018-07-16T19:39:07.828Z,98249.78
2018-07-16T19:41:41.236Z,98237.96
2018-07-16T20:38:16.023Z,98384.77
2018-07-16T20:40:48.791Z,98398.48
2018-07-16T20:43:20.624Z,98399.52
2018-07-16T20:45:53.484Z,98398.22
2018-07-16T20:48:25.747Z,98395.42
2018-07-16T20:50:57.669Z,98390.53
2018-07-16T20:53:30.101Z,98393.47
2018-07-16T20:56:01.680Z,98395.91
2018-07-16T20:58:33.485Z,98406.59
2018-07-16T21:01:05.361Z,98411.72
2018-07-16T21:03:36.567Z,98393.96
2018-07-16T21:06:07.727Z,98389.36
2018-07-16T21:08:38.376Z,98367.44
2018-07-16T21:11:09.615Z,98377.20
2018-07-16T21:13:40.703Z,98380.25
2018-07-16T21:16:11.859Z,98373.41
2018-07-16T21:18:43.021Z,98361.36
2018-07-16T21:21:15.964Z,98356.10
2018-07-16T21:23:48.515Z,98354.26
2018-07-16T21:26:20.304Z,98337.88
2018-07-16T21:28:51.150Z,98328.16
2018-07-16T21:31:26.045Z,98311.95
2018-07-16T21:33:57.022Z,98306.15
2018-07-16T21:36:28.176Z,98298.44
2018-07-16T21:38:58.738Z,98287.28
2018-07-16T21:41:28.952Z,98280.19
2018-07-16T21:44:00.316Z,98285.70
2018-07-16T21:46:31.259Z,98292.00
2018-07-16T21:49:05.296Z,98295.94
2018-07-16T21:51:36.223Z,98296.17
2018-07-16T21:54:08.896Z,98289.09
2018-07-16T21:56:39.867Z,98285.11
2018-07-16T21:59:10.563Z,98283.30
2018-07-16T22:01:41.790Z,98292.97
2018-07-16T22:04:12.499Z,98302.17
2018-07-16T22:06:42.697Z,98313.98
2018-07-16T22:09:13.422Z,98328.30
2018-07-16T22:11:44.942Z,98341.45
2018-07-16T22:14:17.677Z,98343.59
2018-07-16T22:16:49.005Z,98353.52
2018-07-16T22:19:21.109Z,98359.52
2018-07-16T22:21:52.849Z,98367.81
2018-07-16T22:25:01.288Z,98366.11
2018-07-16T22:27:32.140Z,98352.48
2018-07-16T22:30:02.747Z,98353.03
2018-07-16T22:32:52.557Z,98352.25
2018-07-16T22:35:23.645Z,98360.65
2018-07-16T22:37:54.416Z,98348.36
2018-07-16T22:40:25.991Z,98346.98
2018-07-16T22:42:56.761Z,98334.44
2018-07-16T22:45:27.678Z,98341.91
2018-07-16T22:47:58.409Z,98342.41
2018-07-16T22:50:29.085Z,98344.76
2018-07-16T22:52:59.656Z,98345.95
2018-07-16T22:55:30.353Z,98346.03
2018-07-16T22:58:00.976Z,98354.84
2018-07-16T23:00:31.678Z,98342.90
2018-07-16T23:03:02.371Z,98344.52
2018-07-16T23:05:33.443Z,98333.55
2018-07-16T23:08:05.026Z,98332.02
2018-07-16T23:10:35.653Z,98325.64
2018-07-16T23:13:06.210Z,98338.38
2018-07-16T23:15:37.156Z,98344.92
2018-07-16T23:18:07.798Z,98355.37
2018-07-16T23:20:38.337Z,98355.37
2018-07-16T23:23:08.731Z,98345.59
2018-07-16T23:25:40.029Z,98324.55
2018-07-16T23:28:10.491Z,98335.86
2018-07-16T23:30:41.740Z,98349.97
2018-07-16T23:33:11.734Z,98357.84
2018-07-16T23:35:43.278Z,98344.42
2018-07-16T23:38:13.767Z,98347.62
2018-07-16T23:40:44.547Z,98361.47
2018-07-16T23:43:14.730Z,98357.34
2018-07-16T23:45:46.701Z,98352.72
2018-07-16T23:48:17.389Z,98360.66
2018-07-16T23:50:48.134Z,98390.65
2018-07-16T23:53:18.790Z,98398.92
2018-07-16T23:55:49.446Z,98390.51
2018-07-16T23:58:19.833Z,98377.27
